Time;durP1;ratioP1;P1;durP2;ratioP2;P2;SDS_P1;SDS_P2;PMS_P1;PMS_P2;Temp;Humidity;BMP_temperature;BMP_pressure;BME280_temperature;BME280_humidity;BME280_pressure;Samples;Min_cycle;Max_cycle;Signal;HPM_P1;HPM_P2
2022/02/06 05:11:59;;;;;;;3.53;1.47;;;5.70;99.90;;;;;;4957203;29;20459;-67
2022/02/06 05:14:40;;;;;;;6.53;2.00;;;5.60;99.90;;;;;;4956811;29;20448;-67
2022/02/06 05:17:38;;;;;;;3.37;1.63;;;5.70;99.90;;;;;;4957335;29;20499;-68
2022/02/06 05:26:05;;;;;;;3.47;1.30;;;5.60;99.90;;;;;;4897481;29;20426;-67
2022/02/06 05:28:38;;;;;;;5.40;1.47;;;5.60;99.90;;;;;;4937775;29;20471;-67
2022/02/06 05:31:08;;;;;;;4.20;1.27;;;5.60;99.90;;;;;;4957036;29;20569;-67
2022/02/06 05:33:36;;;;;;;5.37;1.30;;;5.70;99.90;;;;;;4957161;28;20436;-68
2022/02/06 05:36:04;;;;;;;2.23;1.27;;;5.60;99.90;;;;;;4957212;29;20456;-69
2022/02/06 05:38:31;;;;;;;5.83;1.50;;;5.60;99.90;;;;;;4956853;29;20535;-67
2022/02/06 05:40:58;;;;;;;2.30;1.33;;;5.60;99.90;;;;;;4956480;29;20487;-67
2022/02/06 05:43:25;;;;;;;2.37;1.47;;;5.60;99.90;;;;;;4956976;29;20461;-67
2022/02/06 05:45:51;;;;;;;8.17;2.70;;;5.60;99.90;;;;;;4956481;28;20463;-66
2022/02/06 05:48:19;;;;;;;3.10;1.40;;;5.60;99.90;;;;;;4956785;29;20463;-68
2022/02/06 05:50:47;;;;;;;3.90;1.43;;;5.60;99.90;;;;;;4956707;29;20518;-68
2022/02/06 05:53:16;;;;;;;3.97;2.20;;;5.60;99.90;;;;;;4956820;29;20825;-68
2022/02/06 05:55:44;;;;;;;5.87;1.70;;;5.60;99.90;;;;;;4956455;29;20461;-67
2022/02/06 05:58:11;;;;;;;2.70;1.03;;;5.70;99.90;;;;;;4956894;29;20460;-68
2022/02/06 06:00:38;;;;;;;4.33;1.70;;;5.70;99.90;;;;;;4957451;29;20555;-68
2022/02/06 06:03:06;;;;;;;2.97;1.40;;;5.70;99.90;;;;;;4957116;29;20451;-67
2022/02/06 06:05:33;;;;;;;4.60;1.70;;;5.70;99.90;;;;;;4956752;29;20472;-68
2022/02/06 06:08:01;;;;;;;3.03;1.20;;;5.60;99.90;;;;;;4958516;28;20484;-68
2022/02/06 06:10:28;;;;;;;5.33;1.40;;;5.70;99.90;;;;;;4961196;29;20459;-68
2022/02/06 06:12:55;;;;;;;3.30;1.20;;;5.80;99.90;;;;;;4960055;29;20453;-66
2022/02/06 06:15:23;;;;;;;4.23;1.47;;;5.70;99.90;;;;;;4956718;28;20488;-68
2022/02/06 06:17:50;;;;;;;5.27;1.90;;;5.70;99.90;;;;;;4956496;29;20458;-68
2022/02/06 06:20:19;;;;;;;5.67;2.17;;;5.60;99.90;;;;;;4956299;29;20480;-68
2022/02/06 06:22:47;;;;;;;3.13;1.30;;;5.70;99.90;;;;;;4956605;29;20458;-67
2022/02/06 06:25:15;;;;;;;2.33;1.33;;;5.60;99.90;;;;;;4956263;29;20488;-68
2022/02/06 06:27:42;;;;;;;2.53;1.40;;;5.70;99.90;;;;;;4955689;28;20460;-67
2022/02/06 06:30:10;;;;;;;3.60;1.50;;;5.70;99.90;;;;;;4955960;29;20456;-69
2022/02/06 06:32:36;;;;;;;3.23;1.30;;;5.80;99.90;;;;;;4955735;29;20487;-67
2022/02/06 06:35:05;;;;;;;3.03;1.30;;;5.70;99.90;;;;;;4958927;29;20463;-68
2022/02/06 06:37:32;;;;;;;4.73;1.70;;;5.80;99.90;;;;;;4957676;28;20543;-68
2022/02/06 06:39:59;;;;;;;3.30;1.23;;;5.80;99.90;;;;;;4959451;29;20483;-67
2022/02/06 06:42:27;;;;;;;2.43;1.03;;;5.70;99.90;;;;;;4959035;29;21008;-67
2022/02/06 06:44:54;;;;;;;4.00;1.63;;;5.70;99.90;;;;;;4959413;29;20801;-66
2022/02/06 06:47:20;;;;;;;4.27;1.53;;;5.70;99.90;;;;;;4960079;29;20455;-67
2022/02/06 06:49:48;;;;;;;2.57;1.60;;;5.80;99.90;;;;;;4959244;29;20456;-68
2022/02/06 06:52:15;;;;;;;9.63;1.97;;;5.80;99.90;;;;;;4959253;29;20478;-67
2022/02/06 06:54:45;;;;;;;3.60;2.13;;;5.80;99.90;;;;;;4959081;29;20456;-67
2022/02/06 06:57:18;;;;;;;1.70;1.30;;;5.80;99.90;;;;;;4959965;29;20451;-67
2022/02/06 07:00:20;;;;;;;5.47;1.37;;;5.80;99.90;;;;;;4959358;29;20467;-68
2022/02/06 07:02:47;;;;;;;6.50;1.73;;;5.80;99.90;;;;;;4960172;29;20454;-67
2022/02/06 07:05:14;;;;;;;4.03;1.30;;;5.90;99.90;;;;;;4959233;29;20955;-68
2022/02/06 07:07:40;;;;;;;3.33;1.10;;;5.90;99.90;;;;;;4959578;29;20455;-67
2022/02/06 07:10:08;;;;;;;10.63;1.40;;;5.90;99.90;;;;;;4959270;29;20529;-67
2022/02/06 07:12:34;;;;;;;7.33;2.07;;;5.90;99.90;;;;;;4962062;29;20468;-68
2022/02/06 07:15:03;;;;;;;6.47;1.70;;;5.90;99.90;;;;;;4968707;29;20457;-68
2022/02/06 07:17:29;;;;;;;2.20;1.30;;;5.90;99.90;;;;;;4960194;29;20459;-68
2022/02/06 07:19:56;;;;;;;4.63;1.40;;;5.90;99.90;;;;;;4959558;28;20480;-68
2022/02/06 07:22:23;;;;;;;2.83;1.47;;;6.00;99.90;;;;;;4958914;29;20488;-66
2022/02/06 07:24:53;;;;;;;3.87;1.70;;;6.00;99.90;;;;;;4958879;29;20468;-66
2022/02/06 07:27:24;;;;;;;5.60;1.63;;;6.00;99.90;;;;;;4958637;28;20943;-67
2022/02/06 07:29:51;;;;;;;3.07;1.63;;;6.10;99.90;;;;;;4959330;29;20439;-67
2022/02/06 07:32:20;;;;;;;4.30;1.50;;;6.10;99.90;;;;;;4959033;29;20481;-66
2022/02/06 07:34:47;;;;;;;3.90;1.03;;;6.00;99.90;;;;;;4958523;29;20954;-67
2022/02/06 07:37:13;;;;;;;3.47;1.27;;;6.00;99.90;;;;;;4959399;29;20802;-67
2022/02/06 07:39:40;;;;;;;5.40;1.60;;;6.00;99.90;;;;;;4960218;29;20475;-68
2022/02/06 07:42:09;;;;;;;3.37;1.33;;;6.00;99.90;;;;;;4966749;29;21008;-67
2022/02/06 07:44:37;;;;;;;4.07;1.17;;;6.00;99.90;;;;;;4961769;29;20541;-69
2022/02/06 07:47:13;;;;;;;4.33;1.20;;;6.10;99.90;;;;;;4959077;29;20528;-68
2022/02/06 07:49:42;;;;;;;2.20;1.30;;;6.00;99.90;;;;;;4957920;28;20833;-67
2022/02/06 07:52:09;;;;;;;8.20;2.07;;;6.00;99.90;;;;;;4959021;28;20830;-68
2022/02/06 07:54:36;;;;;;;3.20;1.17;;;6.10;99.90;;;;;;4959152;29;20451;-67
2022/02/06 07:57:04;;;;;;;3.90;1.43;;;6.10;99.90;;;;;;4958684;29;20815;-69
2022/02/06 07:59:31;;;;;;;4.63;1.27;;;6.10;99.90;;;;;;4959019;29;20483;-68
2022/02/06 08:01:58;;;;;;;1.80;1.23;;;6.10;99.90;;;;;;4958567;28;20496;-67
2022/02/06 08:04:24;;;;;;;8.30;1.70;;;6.20;99.90;;;;;;4958959;29;20489;-68
2022/02/06 08:06:53;;;;;;;5.30;1.50;;;6.20;99.90;;;;;;4960581;29;20455;-67
2022/02/06 08:09:29;;;;;;;4.10;1.80;;;6.10;99.90;;;;;;4959626;28;20478;-68
2022/02/06 08:11:56;;;;;;;2.23;1.20;;;6.20;99.90;;;;;;4958938;28;20498;-67
2022/02/06 08:17:04;;;;;;;6.30;1.67;;;6.20;99.90;;;;;;4957695;29;20536;-67
2022/02/06 08:19:31;;;;;;;5.57;2.00;;;6.10;99.90;;;;;;4957952;29;20827;-67
2022/02/06 08:21:59;;;;;;;5.40;1.70;;;6.20;99.90;;;;;;4958371;29;20481;-67
2022/02/06 08:24:25;;;;;;;3.57;1.27;;;6.20;99.90;;;;;;4957576;29;20955;-67
2022/02/06 08:26:52;;;;;;;4.10;1.73;;;6.20;99.90;;;;;;4957571;29;20937;-67
2022/02/06 08:29:19;;;;;;;5.23;1.70;;;6.30;99.90;;;;;;4957768;29;20461;-67
2022/02/06 08:31:45;;;;;;;3.90;1.43;;;6.30;99.90;;;;;;4957746;29;20477;-66
2022/02/06 08:34:12;;;;;;;4.50;1.50;;;6.40;99.90;;;;;;4957723;29;20443;-67
2022/02/06 08:36:39;;;;;;;3.80;1.60;;;6.30;99.90;;;;;;4957574;29;20464;-67
2022/02/06 08:39:07;;;;;;;1.97;1.70;;;6.40;99.90;;;;;;4957786;29;20471;-67
2022/02/06 08:41:34;;;;;;;1.53;1.20;;;6.40;99.90;;;;;;4957502;28;20481;-67
2022/02/06 08:44:02;;;;;;;3.10;1.33;;;6.40;99.90;;;;;;4957406;29;20457;-66
2022/02/06 08:46:28;;;;;;;7.03;1.90;;;6.50;99.90;;;;;;4957487;29;20449;-66
2022/02/06 08:48:55;;;;;;;6.00;1.73;;;6.60;99.90;;;;;;4957279;29;20467;-66
2022/02/06 08:51:22;;;;;;;5.47;1.40;;;6.60;99.90;;;;;;4957546;29;20503;-66
2022/02/06 08:53:49;;;;;;;4.00;1.20;;;6.60;99.90;;;;;;4957260;29;20465;-66
2022/02/06 08:56:17;;;;;;;7.10;2.37;;;6.70;99.90;;;;;;4957174;29;20458;-65
2022/02/06 08:58:43;;;;;;;4.13;1.43;;;6.70;99.90;;;;;;4957288;29;20460;-67
2022/02/06 09:01:10;;;;;;;2.60;1.37;;;6.80;99.90;;;;;;4956907;28;20615;-67
2022/02/06 09:03:37;;;;;;;3.30;1.30;;;6.70;99.90;;;;;;4957728;29;20457;-66
2022/02/06 09:06:04;;;;;;;4.10;1.60;;;6.80;99.90;;;;;;4957301;29;20443;-66
2022/02/06 09:08:32;;;;;;;2.83;1.30;;;6.80;99.90;;;;;;4957634;29;20499;-66
2022/02/06 09:10:58;;;;;;;5.67;1.50;;;6.90;99.90;;;;;;4957205;29;20505;-66
2022/02/06 09:13:26;;;;;;;4.10;1.63;;;7.00;99.90;;;;;;4964583;29;20469;-67
2022/02/06 09:15:53;;;;;;;3.07;1.57;;;7.00;99.90;;;;;;4964908;29;20458;-66
2022/02/06 09:18:20;;;;;;;4.27;2.20;;;6.90;99.90;;;;;;4957162;29;20457;-67
2022/02/06 09:20:46;;;;;;;7.23;1.87;;;7.00;99.90;;;;;;4956784;29;20490;-66
2022/02/06 09:23:13;;;;;;;4.20;1.60;;;6.90;99.90;;;;;;4957032;29;20465;-66
2022/02/06 09:25:40;;;;;;;5.90;1.63;;;7.00;99.90;;;;;;4957018;29;20507;-65
2022/02/06 09:28:07;;;;;;;4.33;1.97;;;7.00;99.90;;;;;;4956738;29;20838;-66
2022/02/06 09:30:35;;;;;;;4.27;1.70;;;6.90;99.90;;;;;;4957166;29;20529;-65
2022/02/06 09:35:27;;;;;;;5.37;2.43;;;6.90;99.90;;;;;;4956984;29;20520;-65
2022/02/06 09:37:56;;;;;;;4.63;1.57;;;7.00;99.90;;;;;;4956883;29;20201;-67
2022/02/06 09:40:26;;;;;;;2.77;1.50;;;7.00;99.90;;;;;;4956387;29;20843;-67
2022/02/06 09:42:58;;;;;;;6.63;1.10;;;7.00;99.90;;;;;;4957550;29;20446;-67
2022/02/06 09:45:28;;;;;;;4.67;1.20;;;6.90;99.90;;;;;;4958895;29;20476;-68
2022/02/06 09:47:57;;;;;;;3.10;1.23;;;6.90;99.90;;;;;;4958476;29;20445;-66
2022/02/06 09:50:24;;;;;;;5.30;1.17;;;6.90;99.90;;;;;;4957826;29;20444;-66
2022/02/06 09:52:51;;;;;;;1.90;1.40;;;7.00;99.90;;;;;;4958501;29;20445;-66
2022/02/06 09:55:20;;;;;;;3.07;1.60;;;7.00;99.90;;;;;;4957995;29;20456;-67
2022/02/06 09:57:54;;;;;;;4.10;1.80;;;7.10;99.90;;;;;;4957556;29;20458;-66
2022/02/06 10:00:22;;;;;;;5.97;1.30;;;7.20;99.90;;;;;;4957273;29;20809;-67
2022/02/06 10:02:52;;;;;;;3.50;1.30;;;7.30;99.90;;;;;;4956885;29;20439;-67
2022/02/06 10:05:21;;;;;;;3.83;1.60;;;7.30;99.90;;;;;;4963895;29;20455;-68
2022/02/06 10:07:57;;;;;;;8.83;1.50;;;7.30;99.90;;;;;;4966025;29;20456;-68
2022/02/06 10:10:24;;;;;;;2.20;1.43;;;7.30;99.90;;;;;;4956814;29;20497;-67
2022/02/06 10:12:54;;;;;;;5.27;1.53;;;7.30;99.90;;;;;;4958878;29;20458;-68
2022/02/06 10:15:21;;;;;;;2.10;1.27;;;7.30;99.90;;;;;;4967121;28;20461;-69
2022/02/06 10:17:49;;;;;;;3.87;1.77;;;7.40;99.90;;;;;;4964454;29;20461;-69
2022/02/06 10:20:20;;;;;;;5.57;1.67;;;7.40;99.90;;;;;;4966740;29;20485;-69
2022/02/06 10:22:55;;;;;;;4.83;2.30;;;7.40;99.90;;;;;;4968955;28;20440;-70
2022/02/06 10:25:21;;;;;;;5.13;2.03;;;7.30;99.90;;;;;;4959897;29;20842;-70
2022/02/06 10:27:54;;;;;;;9.80;2.27;;;7.40;99.90;;;;;;4957799;29;20458;-70
2022/02/06 10:30:30;;;;;;;1.73;1.37;;;7.50;99.90;;;;;;4957291;29;20441;-70
2022/02/06 10:32:57;;;;;;;2.93;1.60;;;7.60;99.90;;;;;;4957532;29;20463;-69
2022/02/06 10:35:25;;;;;;;2.10;1.40;;;7.60;99.90;;;;;;4957448;29;20457;-70
2022/02/06 10:37:51;;;;;;;10.23;1.40;;;7.70;99.90;;;;;;4956506;29;20460;-70
2022/02/06 10:40:18;;;;;;;3.00;1.37;;;7.70;99.90;;;;;;4956540;29;20489;-69
2022/02/06 10:42:45;;;;;;;3.50;1.37;;;7.80;99.90;;;;;;4956512;29;20462;-69
2022/02/06 10:45:15;;;;;;;2.27;1.17;;;7.80;99.90;;;;;;4956672;29;20442;-70
2022/02/06 10:47:42;;;;;;;4.67;1.20;;;8.00;99.90;;;;;;4957851;29;20464;-70
2022/02/06 10:50:13;;;;;;;2.23;1.40;;;8.10;99.90;;;;;;4956974;29;20458;-69
2022/02/06 10:52:41;;;;;;;4.60;2.53;;;8.20;99.90;;;;;;4956786;29;20458;-69
2022/02/06 10:55:08;;;;;;;3.23;2.13;;;8.10;99.90;;;;;;4957789;28;20467;-69
2022/02/06 10:57:36;;;;;;;2.60;1.20;;;8.00;99.90;;;;;;4957688;28;20823;-69
2022/02/06 11:00:07;;;;;;;1.10;1.03;;;8.00;99.90;;;;;;4958251;29;20498;-70
2022/02/06 11:02:37;;;;;;;1.50;1.33;;;8.10;99.90;;;;;;4957501;28;20528;-70
2022/02/06 11:05:12;;;;;;;5.10;0.97;;;8.00;99.90;;;;;;4956365;28;20447;-67
2022/02/06 11:07:52;;;;;;;3.40;1.13;;;8.10;99.90;;;;;;4956834;29;20445;-65
2022/02/06 11:10:19;;;;;;;2.00;1.30;;;8.20;99.90;;;;;;4956267;29;20475;-66
2022/02/06 11:12:50;;;;;;;1.17;1.00;;;8.20;99.90;;;;;;4956499;29;20457;-69
2022/02/06 11:15:28;;;;;;;2.37;1.57;;;8.10;99.90;;;;;;4956173;29;20450;-66
2022/02/06 11:18:07;;;;;;;4.97;1.80;;;8.10;99.90;;;;;;4955846;29;20929;-66
2022/02/06 11:20:34;;;;;;;3.30;1.20;;;8.10;99.90;;;;;;4956228;29;20577;-66
2022/02/06 11:23:03;;;;;;;5.90;1.20;;;8.10;99.90;;;;;;4955660;28;20836;-65
2022/02/06 11:25:31;;;;;;;1.27;1.17;;;8.10;99.90;;;;;;4958857;29;20459;-66
2022/02/06 11:27:59;;;;;;;1.53;0.97;;;8.10;99.90;;;;;;4959426;29;20461;-66
2022/02/06 11:30:26;;;;;;;2.10;0.97;;;8.10;99.90;;;;;;4959015;29;20980;-66
2022/02/06 11:32:53;;;;;;;2.77;1.03;;;8.10;99.90;;;;;;4959555;28;20462;-65
2022/02/06 11:35:23;;;;;;;2.13;1.40;;;8.10;99.90;;;;;;4959699;29;20458;-66
2022/02/06 11:43:55;;;;;;;1.40;1.07;;;8.00;99.90;;;;;;4960597;29;20433;-65
2022/02/06 11:46:30;;;;;;;2.90;1.17;;;8.00;99.90;;;;;;4959380;29;20493;-65
2022/02/06 11:49:09;;;;;;;3.43;1.30;;;8.00;99.90;;;;;;4958970;29;20477;-65
2022/02/06 11:51:36;;;;;;;2.20;1.20;;;8.00;99.90;;;;;;4959934;29;20473;-66
2022/02/06 11:54:24;;;;;;;1.67;1.20;;;8.10;99.90;;;;;;4958739;28;20464;-65
2022/02/06 11:57:19;;;;;;;1.20;0.90;;;8.10;99.90;;;;;;4958822;29;20457;-65
2022/02/06 12:00:20;;;;;;;1.70;1.00;;;8.10;99.90;;;;;;4960538;28;20947;-66
2022/02/06 12:02:51;;;;;;;1.07;0.97;;;8.10;99.90;;;;;;4962997;28;20449;-65
2022/02/06 12:05:21;;;;;;;3.00;1.07;;;8.10;99.90;;;;;;4959356;29;20447;-65
2022/02/06 12:08:13;;;;;;;2.10;1.13;;;8.00;99.90;;;;;;4958698;29;20946;-65
2022/02/06 12:11:16;;;;;;;0.93;0.83;;;8.00;99.90;;;;;;4958327;29;20520;-65
2022/02/06 12:13:46;;;;;;;2.80;1.00;;;8.10;99.90;;;;;;4959248;29;20438;-66
2022/02/06 12:16:29;;;;;;;0.80;0.80;;;8.10;99.90;;;;;;4959923;29;20445;-66
2022/02/06 12:18:56;;;;;;;2.00;0.77;;;8.20;99.90;;;;;;4962263;29;20443;-66
2022/02/06 12:21:24;;;;;;;0.70;0.60;;;8.40;99.90;;;;;;4960208;29;20495;-66
2022/02/06 12:23:54;;;;;;;0.83;0.70;;;8.40;99.90;;;;;;4958910;29;20467;-66
2022/02/06 12:26:43;;;;;;;4.23;0.60;;;8.40;99.90;;;;;;4958038;29;20447;-66
2022/02/06 12:29:16;;;;;;;0.87;0.70;;;8.40;99.90;;;;;;4957940;29;20439;-66
2022/02/06 12:32:03;;;;;;;1.10;0.70;;;8.30;99.90;;;;;;4958111;29;20512;-66
2022/02/06 12:37:31;;;;;;;2.30;0.70;;;8.50;99.90;;;;;;4959114;29;20474;-66
2022/02/06 12:39:59;;;;;;;0.80;0.80;;;8.30;99.90;;;;;;4957940;29;20448;-66
2022/02/06 12:42:29;;;;;;;0.87;0.87;;;8.20;99.90;;;;;;4957477;29;20488;-66
2022/02/06 12:45:02;;;;;;;0.63;0.63;;;8.30;99.90;;;;;;4957654;29;20453;-66
2022/02/06 12:47:31;;;;;;;0.77;0.63;;;8.40;99.90;;;;;;4957063;29;20490;-65
2022/02/06 12:49:58;;;;;;;2.63;0.70;;;8.40;99.90;;;;;;4957407;29;20821;-66
2022/02/06 12:52:25;;;;;;;1.03;0.87;;;8.40;99.90;;;;;;4956902;29;20988;-66
2022/02/06 12:54:52;;;;;;;0.70;0.70;;;8.40;99.90;;;;;;4956939;29;20466;-66
2022/02/06 12:57:20;;;;;;;0.87;0.87;;;8.40;99.90;;;;;;4958214;29;20553;-65
2022/02/06 12:59:48;;;;;;;0.70;0.70;;;8.40;99.90;;;;;;4957594;28;20558;-66
2022/02/06 13:02:23;;;;;;;0.70;0.70;;;8.40;99.90;;;;;;4956603;29;20542;-66
2022/02/06 13:05:00;;;;;;;1.20;0.80;;;8.30;99.90;;;;;;4957714;29;20539;-66
2022/02/06 13:07:30;;;;;;;2.03;0.77;;;8.20;99.90;;;;;;4957114;29;20510;-65
2022/02/06 13:10:03;;;;;;;0.80;0.70;;;8.20;99.90;;;;;;4957123;29;20516;-65
2022/02/06 13:12:36;;;;;;;1.10;0.83;;;8.20;99.90;;;;;;4957620;29;20478;-66
2022/02/06 13:15:29;;;;;;;0.70;0.70;;;8.10;99.90;;;;;;4957113;29;20450;-65
2022/02/06 13:23:53;;;;;;;2.93;1.43;;;8.00;99.90;;;;;;4955941;29;20446;-65
2022/02/06 13:26:26;;;;;;;0.83;0.83;;;8.00;99.90;;;;;;4957387;29;20501;-65
2022/02/06 13:29:07;;;;;;;0.90;0.70;;;7.90;99.90;;;;;;4956889;29;20467;-65
2022/02/06 13:31:50;;;;;;;1.20;0.57;;;7.80;99.90;;;;;;4956882;29;20474;-66
2022/02/06 13:34:30;;;;;;;2.87;0.70;;;7.70;99.90;;;;;;4957783;28;20848;-66
2022/02/06 13:37:07;;;;;;;1.30;0.83;;;7.70;99.90;;;;;;4957315;29;20520;-65
2022/02/06 13:39:38;;;;;;;0.63;0.63;;;7.70;99.90;;;;;;4956382;29;20490;-66
2022/02/06 13:42:14;;;;;;;1.57;1.10;;;7.60;99.90;;;;;;4956307;28;20489;-66
2022/02/06 13:44:41;;;;;;;1.07;0.97;;;7.60;99.90;;;;;;4956465;28;20493;-65
2022/02/06 13:47:09;;;;;;;1.27;0.50;;;7.60;99.90;;;;;;4955447;28;20453;-66
2022/02/06 13:49:42;;;;;;;0.53;0.53;;;7.60;99.90;;;;;;4960413;29;20549;-66
2022/02/06 13:52:12;;;;;;;3.17;0.67;;;7.50;99.90;;;;;;4964295;29;20828;-66
2022/02/06 13:54:42;;;;;;;1.17;0.63;;;7.40;99.90;;;;;;4957344;28;20491;-66
2022/02/06 13:57:10;;;;;;;0.63;0.60;;;7.30;99.90;;;;;;4957078;29;20595;-66
2022/02/06 13:59:38;;;;;;;0.60;0.60;;;7.30;99.90;;;;;;4957251;29;20460;-66
2022/02/06 14:02:08;;;;;;;1.23;0.70;;;7.20;99.90;;;;;;4956224;29;20540;-66
2022/02/06 14:04:37;;;;;;;0.80;0.80;;;7.10;99.90;;;;;;4956514;29;20447;-66
2022/02/06 14:07:08;;;;;;;0.83;0.83;;;7.10;99.90;;;;;;4956564;29;20459;-66
2022/02/06 14:09:45;;;;;;;1.70;0.70;;;7.00;99.90;;;;;;4956208;29;20934;-64
2022/02/06 14:12:16;;;;;;;0.40;0.40;;;6.90;99.90;;;;;;4956597;29;20996;-65
2022/02/06 14:14:49;;;;;;;0.67;0.67;;;6.80;99.90;;;;;;4956632;29;20473;-66
2022/02/06 14:17:18;;;;;;;0.53;0.53;;;6.80;99.90;;;;;;4956419;29;20938;-65
2022/02/06 14:19:45;;;;;;;0.50;0.50;;;6.70;99.90;;;;;;4956338;29;20468;-65
2022/02/06 14:22:25;;;;;;;0.50;0.50;;;6.70;99.90;;;;;;4956077;29;20484;-65
2022/02/06 14:24:53;;;;;;;0.57;0.57;;;6.70;99.90;;;;;;4956778;29;20441;-65
2022/02/06 14:27:35;;;;;;;1.77;0.73;;;6.60;99.90;;;;;;4956770;28;20462;-65
2022/02/06 14:30:09;;;;;;;1.50;0.50;;;6.60;99.90;;;;;;4956428;28;20441;-65
2022/02/06 14:32:36;;;;;;;0.70;0.40;;;6.50;99.90;;;;;;4955979;29;20517;-65
2022/02/06 14:35:09;;;;;;;0.70;0.70;;;6.50;99.90;;;;;;4956002;29;20464;-65
2022/02/06 14:37:50;;;;;;;0.93;0.50;;;6.50;99.90;;;;;;4955702;29;20811;-65
2022/02/06 14:40:33;;;;;;;0.57;0.57;;;6.50;99.90;;;;;;4956185;29;20855;-65
2022/02/06 14:43:08;;;;;;;0.60;0.60;;;6.40;99.90;;;;;;4955780;29;20568;-66
2022/02/06 14:45:35;;;;;;;1.07;0.80;;;6.40;99.90;;;;;;4955603;29;20936;-66
2022/02/06 14:48:01;;;;;;;0.60;0.60;;;6.40;99.90;;;;;;4956251;29;20463;-66
2022/02/06 14:50:28;;;;;;;1.43;0.57;;;6.30;99.90;;;;;;4955435;29;20857;-65
2022/02/06 14:52:56;;;;;;;0.60;0.60;;;6.30;99.90;;;;;;4955977;29;20458;-65
2022/02/06 14:55:23;;;;;;;0.73;0.73;;;6.30;99.90;;;;;;4956823;29;20457;-65
2022/02/06 14:57:49;;;;;;;0.40;0.40;;;6.30;99.90;;;;;;4956978;28;20460;-65
2022/02/06 15:00:16;;;;;;;0.43;0.43;;;6.30;99.90;;;;;;4960217;29;20487;-66
2022/02/06 15:02:43;;;;;;;2.27;0.67;;;6.30;99.90;;;;;;4959505;28;20467;-65
2022/02/06 15:05:10;;;;;;;0.40;0.40;;;6.30;99.90;;;;;;4960497;29;20870;-66
2022/02/06 15:07:37;;;;;;;0.63;0.50;;;6.20;99.90;;;;;;4959242;29;20467;-66
2022/02/06 15:10:06;;;;;;;0.80;0.80;;;6.20;99.90;;;;;;4958825;29;20463;-65
2022/02/06 15:12:34;;;;;;;3.30;0.50;;;6.20;99.90;;;;;;4959521;28;20472;-64
2022/02/06 15:15:00;;;;;;;0.40;0.40;;;6.20;99.90;;;;;;4958650;29;20980;-66
2022/02/06 15:17:29;;;;;;;0.80;0.60;;;6.20;99.90;;;;;;4958933;29;20460;-66
2022/02/06 15:19:55;;;;;;;0.60;0.43;;;6.10;99.90;;;;;;4959338;29;20556;-66
2022/02/06 15:22:22;;;;;;;0.50;0.50;;;6.10;99.90;;;;;;4961379;29;20490;-65
2022/02/06 15:24:49;;;;;;;0.40;0.40;;;6.10;99.90;;;;;;4963994;29;20467;-65
2022/02/06 15:27:17;;;;;;;0.43;0.43;;;6.00;99.90;;;;;;4959192;29;20490;-66
2022/02/06 15:29:44;;;;;;;2.33;0.60;;;6.00;99.90;;;;;;4959102;29;20465;-66
2022/02/06 15:32:11;;;;;;;0.60;0.40;;;5.90;99.90;;;;;;4964126;29;20475;-66
2022/02/06 15:34:37;;;;;;;0.50;0.50;;;5.90;99.90;;;;;;4958856;29;20466;-66
2022/02/06 15:37:05;;;;;;;0.40;0.40;;;5.90;99.90;;;;;;4958620;29;20511;-65
2022/02/06 15:39:36;;;;;;;0.53;0.30;;;5.90;99.90;;;;;;4958888;28;20452;-65
2022/02/06 15:42:12;;;;;;;0.60;0.60;;;5.90;99.90;;;;;;4958611;29;20489;-64
2022/02/06 15:44:40;;;;;;;0.37;0.37;;;5.90;99.90;;;;;;4958744;29;20514;-65
2022/02/06 15:47:07;;;;;;;0.53;0.53;;;5.90;99.90;;;;;;4958642;29;20448;-65
2022/02/06 15:49:35;;;;;;;0.50;0.40;;;5.90;99.90;;;;;;4958410;29;20448;-65
2022/02/06 15:52:02;;;;;;;0.50;0.50;;;5.90;99.90;;;;;;4958072;28;20484;-66
2022/02/06 15:54:28;;;;;;;1.53;0.53;;;5.90;99.90;;;;;;4958241;29;20450;-66
2022/02/06 15:56:55;;;;;;;0.40;0.40;;;5.90;99.90;;;;;;4958477;29;20456;-66
2022/02/06 15:59:22;;;;;;;0.40;0.40;;;5.90;99.90;;;;;;4958890;29;20457;-65
2022/02/06 16:02:01;;;;;;;0.40;0.40;;;5.90;99.90;;;;;;4959175;28;20491;-67
2022/02/06 16:04:36;;;;;;;0.40;0.40;;;5.90;99.90;;;;;;4959418;29;20946;-65
2022/02/06 16:07:05;;;;;;;0.40;0.40;;;5.90;99.90;;;;;;4959783;28;20815;-64
2022/02/06 16:09:41;;;;;;;0.40;0.40;;;5.90;99.90;;;;;;4958573;28;20464;-65
2022/02/06 16:12:11;;;;;;;0.60;0.40;;;5.90;99.90;;;;;;4958353;28;20530;-65
2022/02/06 16:14:49;;;;;;;0.33;0.33;;;5.90;99.90;;;;;;4958768;29;20799;-65
2022/02/06 16:17:18;;;;;;;0.70;0.70;;;6.00;99.90;;;;;;4958309;29;20544;-66
2022/02/06 16:19:44;;;;;;;0.40;0.40;;;6.00;99.90;;;;;;4958340;29;20462;-66
2022/02/06 16:22:11;;;;;;;0.30;0.30;;;6.00;99.90;;;;;;4957607;28;20484;-65
2022/02/06 16:24:41;;;;;;;0.33;0.33;;;6.00;99.90;;;;;;4958197;29;20468;-65
2022/02/06 16:27:09;;;;;;;0.53;0.40;;;6.00;99.90;;;;;;4957762;29;20446;-65
2022/02/06 16:29:36;;;;;;;0.60;0.60;;;6.10;99.90;;;;;;4957715;29;20465;-66
2022/02/06 16:32:04;;;;;;;0.67;0.67;;;6.10;99.90;;;;;;4957552;29;20474;-65
2022/02/06 16:34:32;;;;;;;0.53;0.53;;;6.10;99.90;;;;;;4957546;29;20460;-65
2022/02/06 16:36:59;;;;;;;3.20;0.70;;;6.10;99.90;;;;;;4957053;29;20945;-66
2022/02/06 16:39:26;;;;;;;0.40;0.40;;;6.10;99.90;;;;;;4957477;29;20462;-66
2022/02/06 16:41:53;;;;;;;0.40;0.40;;;6.10;99.90;;;;;;4958072;29;20578;-66
2022/02/06 16:44:20;;;;;;;1.07;0.30;;;6.20;99.90;;;;;;4958324;29;20492;-65
2022/02/06 16:46:46;;;;;;;0.37;0.37;;;6.20;99.90;;;;;;4966763;29;20964;-65
2022/02/06 16:49:15;;;;;;;4.00;0.53;;;6.20;99.90;;;;;;4962426;29;20454;-65
2022/02/06 16:51:43;;;;;;;1.00;0.70;;;6.20;99.90;;;;;;4957594;29;20571;-65
2022/02/06 16:54:10;;;;;;;0.40;0.40;;;6.20;99.90;;;;;;4961521;29;20458;-65
2022/02/06 16:56:36;;;;;;;0.37;0.37;;;6.30;99.90;;;;;;4960906;28;20952;-66
2022/02/06 16:59:03;;;;;;;1.43;0.50;;;6.30;99.90;;;;;;4957583;29;20461;-66
2022/02/06 17:01:30;;;;;;;0.47;0.47;;;6.30;99.90;;;;;;4956943;29;21048;-66
2022/02/06 17:03:57;;;;;;;0.70;0.50;;;6.40;99.90;;;;;;4959518;28;20486;-64
2022/02/06 17:06:23;;;;;;;0.60;0.60;;;6.30;99.90;;;;;;4958240;29;20460;-65
2022/02/06 17:08:52;;;;;;;0.40;0.40;;;6.30;99.90;;;;;;4957185;29;20458;-66
2022/02/06 17:11:18;;;;;;;0.50;0.50;;;6.40;99.90;;;;;;4956934;29;20481;-66
2022/02/06 17:13:45;;;;;;;0.90;0.50;;;6.40;99.90;;;;;;4957117;29;20815;-65
2022/02/06 17:16:12;;;;;;;0.67;0.67;;;6.40;99.90;;;;;;4956838;29;20467;-65
2022/02/06 17:18:39;;;;;;;0.50;0.50;;;6.40;99.90;;;;;;4957697;29;20458;-66
2022/02/06 17:21:07;;;;;;;0.90;0.90;;;6.40;99.90;;;;;;4957487;28;20481;-66
2022/02/06 17:23:34;;;;;;;2.77;0.80;;;6.40;99.90;;;;;;4958604;29;20486;-66
2022/02/06 17:26:02;;;;;;;0.50;0.50;;;6.40;99.90;;;;;;4958435;29;20488;-66
2022/02/06 17:28:29;;;;;;;0.70;0.70;;;6.40;99.90;;;;;;4959523;29;20458;-66
2022/02/06 17:30:56;;;;;;;0.60;0.60;;;6.40;99.90;;;;;;4960316;28;20516;-65
2022/02/06 17:33:24;;;;;;;0.67;0.67;;;6.40;99.90;;;;;;4958190;29;20897;-65
2022/02/06 17:35:51;;;;;;;0.60;0.60;;;6.50;99.90;;;;;;4959504;29;20449;-67
2022/02/06 17:38:22;;;;;;;0.63;0.53;;;6.50;99.90;;;;;;4958908;29;20457;-66
2022/02/06 17:40:48;;;;;;;1.00;0.60;;;6.50;99.90;;;;;;4959797;29;20549;-66
2022/02/06 17:43:16;;;;;;;0.80;0.80;;;6.50;99.90;;;;;;4961573;29;20479;-66
2022/02/06 17:45:43;;;;;;;0.80;0.80;;;6.50;99.90;;;;;;4960011;29;20962;-65
2022/02/06 17:48:10;;;;;;;0.60;0.60;;;6.50;99.90;;;;;;4957799;28;20464;-65
2022/02/06 17:50:37;;;;;;;1.83;0.80;;;6.60;99.90;;;;;;4957031;29;20872;-65
2022/02/06 17:53:05;;;;;;;0.60;0.60;;;6.60;99.90;;;;;;4956525;29;20903;-64
2022/02/06 17:55:32;;;;;;;0.50;0.50;;;6.50;99.90;;;;;;4957076;29;20462;-65
2022/02/06 17:57:59;;;;;;;0.63;0.63;;;6.60;99.90;;;;;;4956608;29;20463;-67
2022/02/06 18:00:27;;;;;;;0.80;0.80;;;6.50;99.90;;;;;;4956790;29;20461;-66
2022/02/06 18:02:53;;;;;;;1.50;0.60;;;6.60;99.90;;;;;;4956754;29;20477;-66
2022/02/06 18:05:20;;;;;;;0.70;0.70;;;6.60;99.90;;;;;;4956566;29;20465;-66
2022/02/06 18:07:47;;;;;;;0.80;0.80;;;6.60;99.90;;;;;;4956282;29;20460;-65
2022/02/06 18:10:14;;;;;;;0.77;0.70;;;6.60;99.90;;;;;;4956512;29;20466;-65
2022/02/06 18:12:41;;;;;;;1.03;0.77;;;6.70;99.90;;;;;;4956016;29;20486;-65
2022/02/06 18:15:08;;;;;;;0.57;0.53;;;6.70;99.90;;;;;;4955773;29;20457;-66
2022/02/06 18:17:36;;;;;;;0.70;0.70;;;6.70;99.90;;;;;;4956009;28;20971;-66
2022/02/06 18:20:04;;;;;;;0.70;0.70;;;6.70;99.90;;;;;;4956365;29;20468;-65
2022/02/06 18:22:32;;;;;;;0.73;0.73;;;6.80;99.90;;;;;;4956337;29;20486;-65
2022/02/06 18:24:58;;;;;;;0.60;0.50;;;6.80;99.90;;;;;;4956741;29;20462;-65
2022/02/06 18:27:25;;;;;;;0.83;0.60;;;6.70;99.90;;;;;;4962363;29;20926;-65
2022/02/06 18:29:53;;;;;;;0.70;0.70;;;6.80;99.90;;;;;;4958419;29;20462;-65
2022/02/06 18:32:20;;;;;;;1.00;0.90;;;6.80;99.90;;;;;;4955941;28;20548;-65
2022/02/06 18:34:49;;;;;;;0.90;0.90;;;6.80;99.90;;;;;;4960265;29;20461;-66
2022/02/06 18:37:16;;;;;;;0.67;0.67;;;6.80;99.90;;;;;;4960151;29;20456;-66
2022/02/06 18:39:43;;;;;;;0.67;0.67;;;6.80;99.90;;;;;;4960548;29;20465;-66
2022/02/06 18:42:10;;;;;;;0.40;0.40;;;6.90;99.90;;;;;;4959938;29;20478;-66
2022/02/06 18:44:37;;;;;;;1.57;1.47;;;6.90;99.90;;;;;;4959792;29;21012;-65
2022/02/06 18:47:05;;;;;;;0.53;0.50;;;6.90;99.90;;;;;;4960179;29;20867;-66